createdAt,value
2019-04-30T00:00:46.066Z,50.81
2019-04-30T00:03:19.729Z,50.54
2019-04-30T00:05:49.312Z,50.98
2019-04-30T00:08:19.234Z,50.99
2019-04-30T00:10:48.003Z,51.29
2019-04-30T00:13:20.677Z,51.10
2019-04-30T00:15:47.869Z,50.95
2019-04-30T00:18:17.533Z,51.24
2019-04-30T00:20:47.057Z,51.22
2019-04-30T00:23:17.964Z,51.22
2019-04-30T00:25:46.642Z,51.26
2019-04-30T00:28:15.617Z,51.76
2019-04-30T00:30:47.701Z,51.63
2019-04-30T00:33:21.927Z,51.94
2019-04-30T00:35:45.444Z,51.83
2019-04-30T00:38:15.102Z,52.15
2019-04-30T00:40:45.092Z,52.16
2019-04-30T00:43:15.470Z,52.48
2019-04-30T00:45:47.407Z,52.50
2019-04-30T00:48:19.378Z,52.55
2019-04-30T00:50:46.033Z,52.33
2019-04-30T00:53:16.503Z,52.12
2019-04-30T00:55:48.447Z,52.11
2019-04-30T00:58:17.734Z,51.98
2019-04-30T01:01:08.081Z,51.80
2019-04-30T01:03:39.488Z,51.32
2019-04-30T01:06:06.910Z,50.95
2019-04-30T01:08:35.916Z,50.97
2019-04-30T01:11:09.368Z,52.04
2019-04-30T01:13:36.465Z,52.03
2019-04-30T01:16:05.606Z,52.56
2019-04-30T01:18:34.252Z,53.01
2019-04-30T01:21:06.995Z,53.28
2019-04-30T01:23:33.297Z,53.52
2019-04-30T01:26:02.135Z,54.18
2019-04-30T01:28:30.773Z,53.98
2019-04-30T01:31:01.963Z,54.10
2019-04-30T01:33:34.621Z,54.28
2019-04-30T01:36:04.146Z,54.53
2019-04-30T01:38:31.834Z,54.93
2019-04-30T01:41:00.527Z,55.04
2019-04-30T01:43:33.155Z,55.44
2019-04-30T01:46:01.786Z,55.45
2019-04-30T01:48:29.960Z,55.51
2019-04-30T01:50:58.659Z,55.18
2019-04-30T01:53:28.924Z,54.93
2019-04-30T01:56:15.291Z,54.88
2019-04-30T01:58:45.588Z,55.41
2019-04-30T02:01:21.673Z,55.52
2019-04-30T02:03:50.305Z,56.07
2019-04-30T02:06:19.672Z,55.68
2019-04-30T02:08:49.373Z,55.61
2019-04-30T02:11:18.971Z,55.76
2019-04-30T02:13:49.176Z,55.60
2019-04-30T02:16:20.996Z,55.87
2019-04-30T02:18:49.641Z,55.87
2019-04-30T02:21:19.482Z,55.98
2019-04-30T02:23:49.323Z,55.67
2019-04-30T02:26:18.834Z,55.58
2019-04-30T02:28:49.503Z,55.67
2019-04-30T02:31:19.478Z,55.61
2019-04-30T02:33:50.474Z,56.08
2019-04-30T02:36:29.828Z,55.79
2019-04-30T02:38:59.506Z,55.72
2019-04-30T02:41:29.883Z,55.21
2019-04-30T02:44:00.950Z,54.65
2019-04-30T02:46:32.300Z,55.22
2019-04-30T02:49:01.286Z,55.45
2019-04-30T02:51:32.950Z,55.82
2019-04-30T02:54:13.732Z,55.46
2019-04-30T02:56:44.077Z,55.80
2019-04-30T02:59:12.764Z,56.43
2019-04-30T03:01:41.372Z,56.20
2019-04-30T03:04:10.264Z,56.33
2019-04-30T03:06:40.158Z,55.90
2019-04-30T03:09:10.346Z,55.96
2019-04-30T03:11:40.531Z,55.83
2019-04-30T03:14:10.590Z,55.98
2019-04-30T03:16:43.988Z,55.90
2019-04-30T03:19:23.496Z,55.65
2019-04-30T03:21:53.849Z,55.49
2019-04-30T03:24:22.577Z,55.35
2019-04-30T03:26:51.199Z,55.18
2019-04-30T03:29:23.772Z,55.38
2019-04-30T03:31:52.257Z,54.54
2019-04-30T03:34:25.590Z,54.72
2019-04-30T03:36:51.100Z,54.59
2019-04-30T03:39:20.087Z,54.83
2019-04-30T03:41:50.176Z,55.00
2019-04-30T03:44:25.489Z,55.58
2019-04-30T03:46:49.912Z,55.39
2019-04-30T03:49:20.176Z,55.49
2019-04-30T03:51:49.926Z,55.97
2019-04-30T03:54:19.514Z,54.97
2019-04-30T03:56:50.185Z,54.75
2019-04-30T03:59:19.898Z,54.55
2019-04-30T04:02:02.788Z,54.34
2019-04-30T04:04:39.669Z,54.63
2019-04-30T04:07:22.439Z,55.24
2019-04-30T04:09:59.839Z,55.07
2019-04-30T04:12:30.412Z,54.57
2019-04-30T04:15:03.277Z,54.37
2019-04-30T04:17:31.478Z,54.23
2019-04-30T04:20:00.081Z,53.89
2019-04-30T04:22:30.694Z,53.47
2019-04-30T04:25:00.115Z,53.24
2019-04-30T04:27:30.305Z,52.75
2019-04-30T04:30:01.030Z,53.00
2019-04-30T04:32:30.813Z,53.33
2019-04-30T04:35:00.515Z,53.19
2019-04-30T04:37:30.238Z,52.83
2019-04-30T04:39:59.781Z,52.50
2019-04-30T04:42:32.428Z,52.26
2019-04-30T04:44:59.516Z,50.96
2019-04-30T04:47:30.765Z,49.58
2019-04-30T04:50:00.718Z,48.42
2019-04-30T04:52:31.418Z,47.72
2019-04-30T04:55:00.556Z,47.12
2019-04-30T04:57:30.342Z,46.44
2019-04-30T05:00:06.907Z,46.04
2019-04-30T05:02:34.759Z,45.51
2019-04-30T05:05:04.517Z,45.16
2019-04-30T05:07:33.257Z,45.40
2019-04-30T05:10:01.917Z,44.87
2019-04-30T05:12:30.588Z,45.36
2019-04-30T05:14:59.878Z,45.58
2019-04-30T05:17:31.684Z,45.85
2019-04-30T05:19:59.005Z,46.46
2019-04-30T05:22:29.343Z,45.92
2019-04-30T05:24:59.051Z,45.40
2019-04-30T05:27:27.861Z,44.88
2019-04-30T05:29:56.552Z,45.18
2019-04-30T05:32:25.203Z,47.10
2019-04-30T05:34:53.794Z,45.50
2019-04-30T05:37:22.638Z,46.03
2019-04-30T05:39:51.560Z,47.46
2019-04-30T05:42:20.233Z,46.38
2019-04-30T05:44:49.837Z,46.04
2019-04-30T05:47:19.635Z,45.65
2019-04-30T05:49:48.954Z,45.82
2019-04-30T05:52:19.940Z,45.75
2019-04-30T05:54:48.861Z,45.26
2019-04-30T05:57:19.730Z,45.87
2019-04-30T05:59:48.881Z,46.54
2019-04-30T06:02:19.312Z,46.53
2019-04-30T06:04:49.045Z,45.93
2019-04-30T06:07:18.851Z,46.01
2019-04-30T06:10:02.745Z,44.42
2019-04-30T06:12:39.317Z,44.57
2019-04-30T06:15:16.072Z,44.97
2019-04-30T06:18:00.050Z,46.29
2019-04-30T06:20:21.046Z,46.16
2019-04-30T06:22:52.387Z,46.20
2019-04-30T06:25:31.691Z,45.93
2019-04-30T06:27:52.435Z,44.96
2019-04-30T06:30:21.254Z,44.47
2019-04-30T06:32:50.025Z,44.87
2019-04-30T06:35:19.427Z,44.42
2019-04-30T06:37:48.922Z,44.67
2019-04-30T06:40:19.579Z,45.13
2019-04-30T06:42:49.639Z,44.38
2019-04-30T06:45:19.250Z,43.77
2019-04-30T06:47:49.131Z,43.53
2019-04-30T06:50:19.431Z,43.17
2019-04-30T06:52:56.679Z,43.00
2019-04-30T06:55:19.304Z,42.45
2019-04-30T06:57:49.710Z,42.52
2019-04-30T07:00:20.685Z,42.52
2019-04-30T07:02:49.554Z,42.91
2019-04-30T07:05:18.687Z,42.30
2019-04-30T07:07:53.292Z,42.71
2019-04-30T07:10:24.008Z,42.71
2019-04-30T07:12:54.304Z,43.13
2019-04-30T07:15:22.952Z,43.15
2019-04-30T07:17:51.709Z,42.89
2019-04-30T07:20:20.373Z,42.61
2019-04-30T07:22:53.933Z,42.73
2019-04-30T07:25:19.707Z,42.79
2019-04-30T07:27:50.579Z,41.57
2019-04-30T07:30:19.245Z,41.57
2019-04-30T07:32:48.805Z,41.57
2019-04-30T07:35:19.579Z,39.72
2019-04-30T07:37:49.696Z,40.27
2019-04-30T07:40:19.106Z,39.81
2019-04-30T07:42:49.259Z,39.95
2019-04-30T07:45:19.495Z,39.92
2019-04-30T07:47:49.545Z,41.75
2019-04-30T07:50:21.535Z,42.40
2019-04-30T07:53:01.742Z,42.23
2019-04-30T07:55:19.747Z,41.71
2019-04-30T07:57:50.563Z,42.28
2019-04-30T08:00:31.028Z,42.91
2019-04-30T08:03:00.342Z,42.92
2019-04-30T08:05:33.431Z,42.96
2019-04-30T08:08:20.655Z,42.82
2019-04-30T08:10:32.733Z,42.55
2019-04-30T08:13:10.072Z,41.06
2019-04-30T08:15:31.838Z,41.13
2019-04-30T08:18:05.471Z,41.54
2019-04-30T08:20:30.903Z,41.37
2019-04-30T08:23:13.000Z,41.37
2019-04-30T08:25:30.058Z,41.48
2019-04-30T08:27:59.178Z,41.91
2019-04-30T08:30:30.048Z,41.62
2019-04-30T08:32:59.594Z,41.47
2019-04-30T08:35:29.649Z,41.97
2019-04-30T08:37:59.044Z,41.36
2019-04-30T08:40:29.754Z,41.36
2019-04-30T08:42:59.487Z,41.01
2019-04-30T08:45:34.404Z,40.73
2019-04-30T08:48:01.254Z,42.21
2019-04-30T08:50:30.493Z,41.26
2019-04-30T08:53:00.171Z,41.38
2019-04-30T08:55:30.453Z,41.49
2019-04-30T08:58:09.659Z,40.88
2019-04-30T09:00:30.453Z,39.91
2019-04-30T09:02:59.441Z,40.62
2019-04-30T09:05:46.545Z,40.02
2019-04-30T09:08:12.387Z,39.07
2019-04-30T09:10:49.797Z,40.17
2019-04-30T09:13:19.192Z,39.29
2019-04-30T09:15:49.211Z,37.88
2019-04-30T09:18:19.077Z,37.97
2019-04-30T09:20:49.682Z,36.88
2019-04-30T09:23:21.225Z,36.72
2019-04-30T09:25:49.945Z,37.91
2019-04-30T09:28:19.997Z,39.21
2019-04-30T09:30:54.257Z,39.90
2019-04-30T09:33:23.076Z,37.93
2019-04-30T09:36:03.572Z,36.58
2019-04-30T09:38:44.220Z,34.69
2019-04-30T09:44:54.246Z,35.39
2019-04-30T09:47:22.102Z,36.67
2019-04-30T09:49:52.587Z,36.84
2019-04-30T09:52:30.852Z,38.05
2019-04-30T09:55:01.476Z,38.02
2019-04-30T09:57:30.557Z,37.51
2019-04-30T10:00:00.613Z,38.63
2019-04-30T10:02:29.596Z,39.84
2019-04-30T10:04:58.682Z,48.41
2019-04-30T10:07:29.356Z,48.41
2019-04-30T10:09:59.105Z,55.94
2019-04-30T10:12:29.505Z,61.45
2019-04-30T10:14:59.299Z,62.15
2019-04-30T10:17:38.847Z,62.02
2019-04-30T10:20:10.985Z,61.09
2019-04-30T10:22:40.116Z,56.92
2019-04-30T10:25:09.964Z,54.73
2019-04-30T10:27:38.908Z,53.63
2019-04-30T10:30:12.486Z,52.20
2019-04-30T10:32:41.191Z,52.08
2019-04-30T10:35:10.045Z,48.20
2019-04-30T10:37:42.138Z,53.35
2019-04-30T10:40:11.165Z,52.94
2019-04-30T10:42:39.901Z,52.46
2019-04-30T10:45:10.112Z,50.46
2019-04-30T10:47:39.329Z,52.68
2019-04-30T10:50:09.928Z,52.50
2019-04-30T10:52:39.374Z,52.33
2019-04-30T10:55:09.358Z,55.06
2019-04-30T10:57:39.701Z,55.61
2019-04-30T11:00:13.843Z,55.17
2019-04-30T11:02:43.699Z,51.29
2019-04-30T11:05:13.577Z,52.06
2019-04-30T11:07:42.317Z,50.87
2019-04-30T11:10:11.451Z,50.36
2019-04-30T11:12:40.080Z,48.14
2019-04-30T11:15:09.156Z,47.33
2019-04-30T11:17:39.705Z,46.36
2019-04-30T11:20:10.306Z,46.34
2019-04-30T11:22:39.502Z,46.36
2019-04-30T11:25:10.070Z,46.15
2019-04-30T11:27:41.761Z,45.37
2019-04-30T11:30:20.790Z,45.43
2019-04-30T11:32:40.778Z,46.21
2019-04-30T11:35:09.646Z,46.55
2019-04-30T11:37:38.358Z,46.42
2019-04-30T11:40:10.140Z,45.93
2019-04-30T11:42:38.814Z,44.71
2019-04-30T11:45:08.988Z,45.18
2019-04-30T11:47:39.034Z,42.50
2019-04-30T11:50:10.510Z,44.45
2019-04-30T11:52:39.176Z,44.48
2019-04-30T11:55:11.402Z,45.07
2019-04-30T11:57:40.232Z,45.19
2019-04-30T12:00:13.353Z,46.09
2019-04-30T12:02:43.069Z,45.85
2019-04-30T12:05:15.087Z,46.61
2019-04-30T12:07:45.416Z,42.21
2019-04-30T12:10:15.863Z,42.72
2019-04-30T12:12:44.605Z,42.35
2019-04-30T12:15:13.880Z,38.34
2019-04-30T12:17:43.849Z,38.50
2019-04-30T12:20:13.109Z,37.45
2019-04-30T12:22:44.817Z,37.15
2019-04-30T12:25:33.554Z,36.71
2019-04-30T12:27:55.107Z,37.24
2019-04-30T12:30:28.961Z,35.56
2019-04-30T12:32:59.062Z,37.28
2019-04-30T12:35:29.163Z,36.03
2019-04-30T12:37:58.844Z,34.67
2019-04-30T12:40:31.714Z,33.37
2019-04-30T12:42:59.915Z,34.32
2019-04-30T12:45:33.982Z,32.75
2019-04-30T12:48:10.014Z,33.18
2019-04-30T12:50:46.215Z,32.60
2019-04-30T12:53:19.234Z,34.29
2019-04-30T12:56:03.290Z,34.68
2019-04-30T12:58:40.507Z,34.43
2019-04-30T13:01:11.053Z,34.22
2019-04-30T13:03:39.992Z,33.81
2019-04-30T13:06:11.160Z,33.81
2019-04-30T13:08:39.859Z,33.62
2019-04-30T13:11:14.776Z,33.53
2019-04-30T13:13:44.869Z,34.10
2019-04-30T13:16:13.721Z,34.21
2019-04-30T13:18:42.404Z,35.32
2019-04-30T13:21:11.162Z,35.04
2019-04-30T13:23:39.807Z,33.81
2019-04-30T13:26:08.965Z,34.57
2019-04-30T13:28:58.387Z,33.60
2019-04-30T13:31:29.415Z,34.26
2019-04-30T13:34:01.619Z,33.26
2019-04-30T13:36:43.175Z,32.78
2019-04-30T13:39:19.582Z,33.12
2019-04-30T13:41:54.065Z,32.06
2019-04-30T13:44:24.384Z,32.03
2019-04-30T13:46:56.137Z,31.89
2019-04-30T13:49:24.822Z,32.74
2019-04-30T13:51:53.418Z,31.35
2019-04-30T13:54:25.426Z,31.35
2019-04-30T13:56:54.548Z,31.80
2019-04-30T13:59:23.184Z,31.43
2019-04-30T14:01:51.883Z,31.81
2019-04-30T14:04:31.229Z,30.05
2019-04-30T14:07:04.535Z,29.62
2019-04-30T14:09:34.923Z,29.65
2019-04-30T14:12:03.591Z,29.42
2019-04-30T14:14:32.256Z,29.31
2019-04-30T14:17:01.222Z,28.70
2019-04-30T14:19:30.366Z,29.34
2019-04-30T14:21:59.049Z,29.08
2019-04-30T14:24:27.762Z,32.57
2019-04-30T14:26:56.788Z,36.06
2019-04-30T14:29:25.470Z,39.32
2019-04-30T14:31:54.168Z,39.67
2019-04-30T14:34:22.950Z,38.84
2019-04-30T14:36:51.762Z,38.35
2019-04-30T14:39:20.539Z,39.19
2019-04-30T14:41:51.881Z,40.16
2019-04-30T14:44:26.053Z,39.72
2019-04-30T14:46:59.603Z,38.07
2019-04-30T14:49:33.922Z,37.50
2019-04-30T14:52:03.403Z,36.90
2019-04-30T14:54:45.783Z,35.64
2019-04-30T14:57:32.562Z,35.54
2019-04-30T15:00:05.694Z,36.58
2019-04-30T15:02:35.999Z,37.10
2019-04-30T15:05:08.805Z,38.39
2019-04-30T15:07:37.077Z,38.05
2019-04-30T15:10:07.122Z,37.78
2019-04-30T15:12:35.897Z,36.98
2019-04-30T15:15:05.963Z,36.32
2019-04-30T15:17:34.928Z,36.53
2019-04-30T15:20:04.341Z,35.99
2019-04-30T15:22:34.654Z,36.21
2019-04-30T15:25:03.800Z,34.87
2019-04-30T15:27:32.547Z,35.43
2019-04-30T15:30:01.261Z,34.91
2019-04-30T15:32:29.902Z,35.76
2019-04-30T15:34:58.998Z,36.88
2019-04-30T15:37:28.671Z,37.25
2019-04-30T15:39:59.130Z,36.67
2019-04-30T15:42:27.971Z,37.17
2019-04-30T15:44:56.731Z,37.56
2019-04-30T15:47:25.403Z,37.20
2019-04-30T15:49:54.119Z,36.65
2019-04-30T15:52:22.788Z,37.06
2019-04-30T15:54:51.649Z,37.47
2019-04-30T15:57:20.831Z,37.29
2019-04-30T15:59:49.543Z,37.28
2019-04-30T16:02:35.144Z,36.96
2019-04-30T16:05:15.819Z,37.82
2019-04-30T16:07:46.377Z,39.76
2019-04-30T16:10:24.394Z,40.19
2019-04-30T16:12:54.663Z,40.64
2019-04-30T16:15:32.725Z,41.93
2019-04-30T16:18:04.042Z,42.40
2019-04-30T16:20:32.688Z,41.98
2019-04-30T16:23:01.382Z,41.98
2019-04-30T16:25:30.397Z,42.21
2019-04-30T16:27:59.280Z,40.77
2019-04-30T16:30:28.917Z,40.34
2019-04-30T16:32:59.650Z,40.06
2019-04-30T16:35:37.319Z,38.79
2019-04-30T16:38:05.925Z,38.88
2019-04-30T16:40:34.612Z,38.99
2019-04-30T16:43:03.409Z,39.12
2019-04-30T16:45:32.158Z,39.57
2019-04-30T16:48:00.728Z,37.93
2019-04-30T16:50:29.939Z,40.89
2019-04-30T16:52:58.827Z,42.80
2019-04-30T16:55:27.546Z,43.47
2019-04-30T16:57:56.246Z,43.92
2019-04-30T17:00:24.965Z,44.69
2019-04-30T17:03:04.581Z,45.06
2019-04-30T17:05:35.268Z,45.40
2019-04-30T17:08:23.695Z,46.04
2019-04-30T17:10:56.954Z,46.43
2019-04-30T17:13:28.937Z,47.24
2019-04-30T17:16:10.983Z,47.33
2019-04-30T17:18:41.665Z,47.70
2019-04-30T17:21:09.870Z,48.22
2019-04-30T17:23:38.575Z,48.46
2019-04-30T17:26:07.304Z,49.50
2019-04-30T17:28:36.063Z,49.93
2019-04-30T17:31:04.750Z,49.60
2019-04-30T17:33:33.408Z,48.21
2019-04-30T17:36:02.089Z,50.27
2019-04-30T17:38:30.751Z,51.28
2019-04-30T17:40:59.484Z,51.87
2019-04-30T17:43:28.040Z,52.01
2019-04-30T17:45:56.707Z,52.49
2019-04-30T17:48:25.387Z,51.86
2019-04-30T17:50:54.046Z,50.78
2019-04-30T17:53:22.780Z,52.29
2019-04-30T17:55:51.393Z,52.96
2019-04-30T17:58:20.607Z,53.03
2019-04-30T18:00:51.112Z,53.17
2019-04-30T18:03:19.832Z,52.77
2019-04-30T18:05:49.180Z,53.23
2019-04-30T18:08:18.161Z,52.65
2019-04-30T18:10:46.960Z,52.48
2019-04-30T18:13:15.627Z,52.77
2019-04-30T18:15:44.296Z,53.52
2019-04-30T18:18:20.524Z,53.38
2019-04-30T18:20:50.829Z,53.52
2019-04-30T18:23:33.166Z,52.79
2019-04-30T18:26:06.408Z,52.84
2019-04-30T18:28:35.091Z,53.30
2019-04-30T18:31:03.844Z,53.52
2019-04-30T18:33:32.487Z,53.77
2019-04-30T18:36:01.177Z,54.20
2019-04-30T18:38:31.093Z,54.50
2019-04-30T18:41:00.296Z,53.91
2019-04-30T18:43:28.966Z,54.06
2019-04-30T18:45:57.913Z,54.41
2019-04-30T18:48:26.559Z,54.71
2019-04-30T18:50:55.316Z,54.39
2019-04-30T18:53:25.656Z,54.67
2019-04-30T18:55:54.305Z,54.92
2019-04-30T18:58:23.027Z,55.02
2019-04-30T19:00:51.802Z,54.14
2019-04-30T19:03:21.865Z,53.98
2019-04-30T19:05:52.313Z,54.23
2019-04-30T19:08:22.670Z,54.81
2019-04-30T19:10:53.048Z,55.07
2019-04-30T19:13:32.248Z,55.33
2019-04-30T19:16:25.344Z,54.94
2019-04-30T19:19:12.452Z,55.45
2019-04-30T19:21:41.231Z,55.80
2019-04-30T19:24:09.969Z,55.92
2019-04-30T19:26:38.907Z,56.04
2019-04-30T19:29:07.893Z,56.40
2019-04-30T19:31:36.975Z,56.41
2019-04-30T19:34:05.626Z,56.04
2019-04-30T19:36:37.558Z,55.43
2019-04-30T19:39:08.692Z,55.55
2019-04-30T19:41:38.640Z,55.68
2019-04-30T19:44:07.775Z,56.12
2019-04-30T19:46:36.460Z,56.67
2019-04-30T19:49:05.192Z,56.69
2019-04-30T19:51:33.826Z,56.65
2019-04-30T19:54:02.446Z,56.76
2019-04-30T19:56:32.827Z,56.30
2019-04-30T19:59:05.223Z,56.28
2019-04-30T20:01:32.056Z,56.53
2019-04-30T20:04:03.368Z,56.66
2019-04-30T20:06:32.260Z,56.92
2019-04-30T20:09:00.994Z,57.12
2019-04-30T20:11:29.660Z,57.26
2019-04-30T20:13:58.305Z,57.02
2019-04-30T20:16:27.198Z,56.44
2019-04-30T20:18:55.862Z,56.36
2019-04-30T20:21:28.884Z,54.37
2019-04-30T20:23:55.703Z,54.52
2019-04-30T20:26:24.377Z,54.81
2019-04-30T20:28:53.123Z,55.04
2019-04-30T20:31:21.795Z,55.74
2019-04-30T20:33:50.518Z,56.92
2019-04-30T20:36:19.202Z,57.21
2019-04-30T20:38:55.474Z,57.39
2019-04-30T20:41:25.781Z,56.40
2019-04-30T20:43:54.443Z,56.67
2019-04-30T20:46:31.464Z,57.06
2019-04-30T20:48:53.572Z,57.13
2019-04-30T20:51:22.218Z,56.24
2019-04-30T20:53:50.876Z,57.70
2019-04-30T20:56:19.834Z,57.43
2019-04-30T20:58:57.199Z,57.12
2019-04-30T21:01:19.365Z,56.87
2019-04-30T21:03:48.468Z,56.92
2019-04-30T21:06:22.189Z,58.15
2019-04-30T21:08:50.832Z,55.70
2019-04-30T21:11:19.535Z,54.33
2019-04-30T21:13:49.110Z,54.45
2019-04-30T21:16:17.928Z,54.78
2019-04-30T21:18:46.570Z,56.25
2019-04-30T21:21:15.291Z,57.62
2019-04-30T21:23:43.879Z,57.84
2019-04-30T21:26:12.541Z,57.89
2019-04-30T21:28:41.311Z,58.34
2019-04-30T21:31:28.099Z,58.51
2019-04-30T21:34:00.299Z,58.15
2019-04-30T21:36:28.811Z,58.00
2019-04-30T21:38:59.062Z,57.68
2019-04-30T21:41:29.650Z,57.37
2019-04-30T21:43:58.290Z,57.29
2019-04-30T21:46:29.108Z,57.86
2019-04-30T21:48:58.703Z,57.80
2019-04-30T21:51:27.467Z,56.73
2019-04-30T21:53:56.156Z,58.83
2019-04-30T21:56:24.811Z,56.55
2019-04-30T21:58:53.468Z,55.08
2019-04-30T22:01:24.985Z,55.54
2019-04-30T22:03:53.636Z,54.74
2019-04-30T22:06:22.272Z,52.81
2019-04-30T22:08:51.060Z,54.81
2019-04-30T22:11:19.995Z,54.53
2019-04-30T22:13:49.399Z,55.19
2019-04-30T22:16:20.179Z,56.85
2019-04-30T22:18:49.006Z,56.39
2019-04-30T22:21:17.692Z,55.72
2019-04-30T22:23:46.408Z,55.98
2019-04-30T22:26:15.081Z,56.86
2019-04-30T22:28:43.797Z,58.47
2019-04-30T22:31:12.485Z,59.15
2019-04-30T22:33:41.141Z,58.51
2019-04-30T22:36:18.875Z,58.80
2019-04-30T22:38:52.292Z,58.94
2019-04-30T22:41:22.634Z,59.04
2019-04-30T22:43:51.290Z,59.63
2019-04-30T22:46:19.975Z,58.97
2019-04-30T22:48:48.674Z,60.14
2019-04-30T22:51:17.333Z,59.64
2019-04-30T22:53:45.903Z,59.64
2019-04-30T22:56:14.765Z,59.87
2019-04-30T22:58:43.358Z,59.82
2019-04-30T23:01:30.092Z,59.25
2019-04-30T23:04:00.381Z,59.25
2019-04-30T23:06:30.363Z,58.89
2019-04-30T23:08:59.163Z,58.90
2019-04-30T23:11:27.886Z,58.75
2019-04-30T23:13:56.555Z,58.74
2019-04-30T23:16:25.236Z,58.85
2019-04-30T23:18:53.872Z,59.34
2019-04-30T23:21:22.598Z,60.38
2019-04-30T23:23:51.237Z,59.40
2019-04-30T23:26:19.929Z,58.74
2019-04-30T23:28:48.654Z,58.21
2019-04-30T23:31:17.357Z,58.44
2019-04-30T23:33:45.918Z,58.03
2019-04-30T23:36:14.621Z,57.54
2019-04-30T23:38:43.320Z,58.78
2019-04-30T23:41:11.963Z,58.23
2019-04-30T23:43:40.610Z,56.90
2019-04-30T23:46:09.374Z,56.37
2019-04-30T23:48:38.030Z,55.90
2019-04-30T23:51:06.675Z,57.05
2019-04-30T23:53:35.379Z,56.67
2019-04-30T23:56:04.049Z,55.97
2019-04-30T23:58:32.637Z,56.86
